Time;durP1;ratioP1;P1;durP2;ratioP2;P2;SDS_P1;SDS_P2;PMS_P1;PMS_P2;Temp;Humidity;BMP_temperature;BMP_pressure;BME280_temperature;BME280_humidity;BME280_pressure;Samples;Min_cycle;Max_cycle;Signal;HPM_P1;HPM_P2
2021/07/20 00:01:41;;;;;;;8.90;5.47;;;;;;;14.28;100.00;101036.03;4986769;28;20293;-77
2021/07/20 00:04:08;;;;;;;8.13;4.90;;;;;;;14.25;100.00;101044.00;4982359;28;20645;-77
2021/07/20 00:06:34;;;;;;;9.10;5.33;;;;;;;14.21;100.00;101039.75;4990512;28;20220;-76
2021/07/20 00:09:02;;;;;;;6.67;5.30;;;;;;;14.16;100.00;101045.19;4981423;28;20213;-77
2021/07/20 00:11:29;;;;;;;8.53;5.80;;;;;;;14.23;100.00;101043.22;4985062;28;20203;-77
2021/07/20 00:13:55;;;;;;;6.70;4.67;;;;;;;14.37;100.00;101045.31;4983160;28;20378;-77
2021/07/20 00:16:22;;;;;;;9.53;4.97;;;;;;;14.32;100.00;101045.50;4984339;28;20233;-77
2021/07/20 00:18:49;;;;;;;6.20;4.83;;;;;;;14.30;100.00;101049.94;4965070;28;20481;-77
2021/07/20 00:21:16;;;;;;;6.70;5.13;;;;;;;14.46;100.00;101045.03;4988777;28;20215;-77
2021/07/20 00:23:42;;;;;;;6.60;5.17;;;;;;;14.35;100.00;101039.28;4982109;28;20698;-77
2021/07/20 00:26:09;;;;;;;7.90;5.30;;;;;;;14.46;100.00;101044.16;4988821;28;20698;-77
2021/07/20 00:28:36;;;;;;;5.93;4.90;;;;;;;14.49;100.00;101038.78;4984285;28;20209;-77
2021/07/20 00:31:03;;;;;;;7.23;5.60;;;;;;;14.59;100.00;101032.34;4980259;28;20221;-77
2021/07/20 00:33:29;;;;;;;6.00;5.10;;;;;;;14.55;100.00;101031.56;4985569;28;20945;-77
2021/07/20 00:35:57;;;;;;;9.17;5.23;;;;;;;14.55;100.00;101035.97;4967885;28;20235;-77
2021/07/20 00:38:25;;;;;;;8.83;5.87;;;;;;;14.50;100.00;101033.50;4989713;28;20216;-77
2021/07/20 00:40:55;;;;;;;9.07;5.10;;;;;;;14.59;100.00;101029.72;4966361;28;20195;-77
2021/07/20 00:43:21;;;;;;;8.87;5.57;;;;;;;14.60;100.00;101039.31;4986569;28;20275;-77
2021/07/20 00:45:48;;;;;;;7.83;5.33;;;;;;;14.58;100.00;101036.75;4978970;28;20221;-77
2021/07/20 00:48:14;;;;;;;8.70;5.40;;;;;;;14.53;100.00;101029.94;4986778;28;20328;-77
2021/07/20 00:50:44;;;;;;;7.23;5.30;;;;;;;14.42;100.00;101034.69;4976286;28;20205;-77
2021/07/20 00:53:15;;;;;;;7.40;5.60;;;;;;;14.40;100.00;101037.34;4974725;28;20210;-77
2021/07/20 00:55:53;;;;;;;7.33;5.03;;;;;;;14.41;100.00;101027.75;4968249;28;20229;-77
2021/07/20 00:58:20;;;;;;;8.23;4.80;;;;;;;14.51;100.00;101035.22;4967782;28;20261;-77
2021/07/20 01:00:49;;;;;;;7.40;4.73;;;;;;;14.42;100.00;101032.06;4979627;28;20307;-77
2021/07/20 01:03:17;;;;;;;6.53;4.93;;;;;;;14.44;100.00;101038.09;4975607;28;20213;-77
2021/07/20 01:05:43;;;;;;;8.37;5.27;;;;;;;14.34;100.00;101025.31;4966099;28;20239;-77
2021/07/20 01:08:12;;;;;;;8.93;5.30;;;;;;;14.40;100.00;101032.09;4966206;28;20298;-77
2021/07/20 01:10:44;;;;;;;6.83;5.43;;;;;;;14.31;100.00;101032.44;4966752;28;20221;-77
2021/07/20 01:13:14;;;;;;;8.53;5.10;;;;;;;14.36;100.00;101033.13;4970042;28;20231;-77
2021/07/20 01:15:47;;;;;;;8.17;5.07;;;;;;;14.25;100.00;101030.00;4966928;28;20217;-76
2021/07/20 01:18:14;;;;;;;6.53;4.90;;;;;;;14.15;100.00;101030.34;4990728;28;20276;-77
2021/07/20 01:20:41;;;;;;;7.53;4.80;;;;;;;14.37;100.00;101016.47;4979333;28;20254;-77
2021/07/20 01:23:17;;;;;;;7.70;5.07;;;;;;;14.41;100.00;101022.50;4964745;28;20583;-77
2021/07/20 01:25:46;;;;;;;7.30;4.63;;;;;;;14.32;100.00;101019.28;4965308;28;20530;-77
2021/07/20 01:28:17;;;;;;;7.00;4.87;;;;;;;14.27;100.00;101018.56;4989022;28;20281;-77
2021/07/20 01:30:48;;;;;;;8.63;5.40;;;;;;;14.27;100.00;101020.34;4964914;28;20339;-77
2021/07/20 01:33:16;;;;;;;7.03;5.30;;;;;;;14.23;100.00;101018.72;5000808;28;20747;-77
2021/07/20 01:35:47;;;;;;;7.00;4.77;;;;;;;14.21;99.12;101018.78;4968497;28;20229;-77
2021/07/20 01:38:14;;;;;;;6.77;5.10;;;;;;;14.37;100.00;101005.97;4984218;28;20272;-77
2021/07/20 01:40:42;;;;;;;6.83;5.20;;;;;;;14.15;98.90;101021.63;4965416;28;20496;-77
2021/07/20 01:43:12;;;;;;;7.63;5.23;;;;;;;14.12;100.00;101027.81;4968192;28;20563;-77
2021/07/20 01:45:44;;;;;;;7.90;5.47;;;;;;;14.20;100.00;101015.31;4970068;28;20225;-77
2021/07/20 01:48:13;;;;;;;8.20;4.97;;;;;;;14.11;99.12;101013.00;4987420;28;21021;-77
2021/07/20 01:50:40;;;;;;;8.13;4.80;;;;;;;14.05;99.37;101018.47;4966126;28;20206;-77
2021/07/20 01:53:09;;;;;;;7.93;5.30;;;;;;;14.14;100.00;101012.03;4968692;28;20260;-77
2021/07/20 01:55:37;;;;;;;7.67;5.50;;;;;;;14.09;100.00;101021.81;4964434;28;20397;-78
2021/07/20 01:58:05;;;;;;;6.17;5.17;;;;;;;14.16;100.00;101020.72;4969477;28;20201;-77
2021/07/20 02:00:46;;;;;;;7.47;5.40;;;;;;;14.05;98.26;101015.84;4968872;28;20789;-77
2021/07/20 02:03:29;;;;;;;6.33;4.60;;;;;;;14.00;97.65;101012.50;5000038;28;20291;-77
2021/07/20 02:09:05;;;;;;;7.40;4.87;;;;;;;14.12;100.00;101013.88;4985262;28;20646;-77
2021/07/20 02:11:35;;;;;;;7.67;4.93;;;;;;;14.14;100.00;101017.28;4966456;28;20209;-77
2021/07/20 02:14:31;;;;;;;6.17;5.27;;;;;;;14.05;99.96;101018.47;4950108;28;20552;-77
2021/07/20 02:17:29;;;;;;;7.23;5.10;;;;;;;14.17;99.30;101018.03;4979939;28;20228;-77
2021/07/20 02:20:01;;;;;;;7.87;5.20;;;;;;;14.06;98.71;101011.47;4968084;28;20260;-77
2021/07/20 02:22:40;;;;;;;8.67;4.77;;;;;;;14.18;100.00;101009.28;4994372;28;20210;-77
2021/07/20 02:25:10;;;;;;;6.77;5.17;;;;;;;14.15;100.00;101012.00;4991463;28;20232;-77
2021/07/20 02:27:37;;;;;;;9.47;5.50;;;;;;;14.15;100.00;101012.00;4964774;28;20241;-77
2021/07/20 02:30:09;;;;;;;7.53;4.67;;;;;;;14.04;100.00;101010.66;4989725;28;20221;-77
2021/07/20 02:32:39;;;;;;;6.67;5.37;;;;;;;14.01;100.00;101014.25;4963394;28;20646;-77
2021/07/20 02:35:21;;;;;;;7.53;5.57;;;;;;;14.10;100.00;101007.81;4973671;28;20238;-77
2021/07/20 02:37:49;;;;;;;8.33;5.33;;;;;;;14.02;100.00;101011.56;4979974;28;20231;-77
2021/07/20 02:40:18;;;;;;;9.63;4.67;;;;;;;13.96;100.00;101005.66;4965202;28;20219;-77
2021/07/20 02:42:46;;;;;;;7.23;5.53;;;;;;;13.99;100.00;101010.81;4995494;28;20222;-77
2021/07/20 02:45:15;;;;;;;7.43;4.93;;;;;;;13.99;100.00;101009.03;4989749;28;20252;-77
2021/07/20 02:47:45;;;;;;;8.03;5.50;;;;;;;13.97;100.00;101023.97;4981877;28;20202;-77
2021/07/20 02:50:16;;;;;;;8.13;4.80;;;;;;;13.97;100.00;101013.50;4967780;28;20201;-77
2021/07/20 02:52:47;;;;;;;7.13;5.30;;;;;;;13.97;100.00;101010.03;4964867;28;20209;-77
2021/07/20 02:55:19;;;;;;;7.40;5.70;;;;;;;14.01;100.00;101012.47;4990956;28;20257;-77
2021/07/20 02:57:52;;;;;;;7.20;5.10;;;;;;;13.91;100.00;101015.44;4981633;28;20226;-77
2021/07/20 03:00:21;;;;;;;8.47;5.67;;;;;;;13.97;100.00;101013.50;4985018;28;20228;-77
2021/07/20 03:02:59;;;;;;;8.93;5.47;;;;;;;13.93;100.00;101005.75;4979763;28;20200;-77
2021/07/20 03:05:31;;;;;;;8.23;5.43;;;;;;;13.92;100.00;101007.53;4967955;28;20308;-77
2021/07/20 03:08:01;;;;;;;7.43;5.40;;;;;;;13.92;100.00;101012.78;4969225;28;20213;-77
2021/07/20 03:10:36;;;;;;;7.93;6.37;;;;;;;13.89;100.00;101006.78;4986193;28;20221;-77
2021/07/20 03:13:05;;;;;;;7.53;5.13;;;;;;;13.83;100.00;101020.97;4981818;28;20757;-77
2021/07/20 03:15:40;;;;;;;7.50;5.20;;;;;;;13.90;100.00;101021.63;4971094;28;20212;-77
2021/07/20 03:18:13;;;;;;;6.97;5.67;;;;;;;13.82;100.00;101021.84;4984949;28;20614;-77
2021/07/20 03:20:42;;;;;;;7.77;5.17;;;;;;;13.73;100.00;101015.16;4991822;28;20216;-77
2021/07/20 03:23:11;;;;;;;6.40;5.07;;;;;;;13.78;100.00;101018.50;4983519;28;20211;-78
2021/07/20 03:25:42;;;;;;;7.23;5.60;;;;;;;13.87;100.00;101016.47;5001024;28;20238;-77
2021/07/20 03:28:10;;;;;;;8.27;5.20;;;;;;;13.92;100.00;101017.19;4971110;28;20285;-77
2021/07/20 03:30:39;;;;;;;6.73;5.47;;;;;;;13.94;100.00;101016.19;4971334;28;20687;-77
2021/07/20 03:33:14;;;;;;;10.77;5.70;;;;;;;14.04;100.00;101021.16;4984778;28;20248;-77
2021/07/20 03:35:48;;;;;;;8.37;5.63;;;;;;;13.92;100.00;101023.28;4991291;28;20220;-77
2021/07/20 03:38:16;;;;;;;6.50;4.97;;;;;;;14.00;100.00;101015.13;4980937;28;20224;-77
2021/07/20 03:40:45;;;;;;;6.47;5.47;;;;;;;14.13;100.00;101013.81;4971893;28;20201;-77
2021/07/20 03:43:13;;;;;;;7.70;5.73;;;;;;;14.08;100.00;101015.75;4986192;28;20209;-77
2021/07/20 03:45:39;;;;;;;6.77;5.17;;;;;;;14.02;100.00;101016.81;4992300;28;20228;-78
2021/07/20 03:48:07;;;;;;;7.23;5.30;;;;;;;14.05;100.00;101028.94;4963705;28;20244;-78
2021/07/20 03:50:52;;;;;;;6.07;5.20;;;;;;;14.07;100.00;101019.28;4971653;28;20211;-77
2021/07/20 03:53:19;;;;;;;6.50;5.23;;;;;;;14.06;100.00;101019.34;4984998;28;20235;-77
2021/07/20 03:55:48;;;;;;;7.40;5.63;;;;;;;13.96;98.31;101026.63;4970351;28;20331;-77
2021/07/20 03:58:16;;;;;;;7.73;5.93;;;;;;;14.05;100.00;101022.84;4984946;28;20242;-77
2021/07/20 04:00:47;;;;;;;7.20;5.43;;;;;;;14.10;100.00;101013.06;4984946;28;20204;-77
2021/07/20 04:03:25;;;;;;;10.20;5.73;;;;;;;13.94;95.89;101028.47;4985513;28;20706;-77
2021/07/20 04:06:11;;;;;;;7.07;5.20;;;;;;;14.09;98.51;101027.06;4987213;28;20232;-77
2021/07/20 04:08:52;;;;;;;7.53;5.23;;;;;;;14.14;99.55;101023.41;4967414;28;20214;-77
2021/07/20 04:11:19;;;;;;;7.07;5.00;;;;;;;14.10;96.89;101021.78;4990273;28;20402;-77
2021/07/20 04:13:53;;;;;;;7.40;5.90;;;;;;;14.22;99.41;101017.03;4970104;28;20217;-77
2021/07/20 04:16:44;;;;;;;9.90;5.30;;;;;;;14.26;99.61;101016.84;4981328;28;20215;-77
2021/07/20 04:19:14;;;;;;;8.27;5.50;;;;;;;14.25;98.06;101017.78;4969614;28;20214;-77
2021/07/20 04:22:05;;;;;;;8.40;5.40;;;;;;;14.34;98.16;101024.47;4971015;28;20208;-77
2021/07/20 04:24:32;;;;;;;8.80;6.00;;;;;;;14.31;96.54;101024.56;4967832;28;20639;-77
2021/07/20 04:27:01;;;;;;;7.93;5.67;;;;;;;14.27;94.06;101028.22;4993590;28;21016;-77
2021/07/20 04:29:28;;;;;;;6.30;5.20;;;;;;;14.44;99.22;101019.75;4967839;28;20206;-77
2021/07/20 04:31:57;;;;;;;8.83;5.40;;;;;;;14.42;95.85;101019.78;5008677;28;20703;-77
2021/07/20 04:34:24;;;;;;;9.93;5.53;;;;;;;14.45;95.88;101029.34;4983981;28;20520;-77
2021/07/20 04:37:15;;;;;;;6.23;5.10;;;;;;;14.48;94.95;101037.09;4973895;28;20224;-77
2021/07/20 04:39:47;;;;;;;6.93;5.30;;;;;;;14.52;96.94;101031.66;4983033;28;20693;-76
2021/07/20 04:42:17;;;;;;;6.33;5.30;;;;;;;14.64;97.20;101027.78;4974538;28;20590;-77
2021/07/20 04:44:45;;;;;;;7.27;5.10;;;;;;;14.62;94.17;101040.09;4966236;28;20222;-77
2021/07/20 04:47:20;;;;;;;8.10;4.90;;;;;;;14.71;95.49;101037.13;4974504;28;20539;-77
2021/07/20 04:49:51;;;;;;;7.30;4.93;;;;;;;14.64;92.82;101048.78;4980786;28;20200;-78
2021/07/20 04:52:21;;;;;;;6.07;4.70;;;;;;;14.77;94.53;101039.56;4985305;28;20295;-77
2021/07/20 04:54:50;;;;;;;6.87;4.90;;;;;;;14.81;93.68;101042.03;4982329;28;20646;-78
2021/07/20 04:57:17;;;;;;;5.77;4.70;;;;;;;14.82;91.52;101044.63;4970446;28;20230;-77
2021/07/20 04:59:43;;;;;;;6.37;5.20;;;;;;;14.85;91.77;101051.53;4982005;28;20567;-77
2021/07/20 05:02:17;;;;;;;7.67;4.80;;;;;;;14.93;91.89;101047.72;4970018;28;20308;-77
2021/07/20 05:04:48;;;;;;;7.77;5.30;;;;;;;15.00;91.81;101053.56;4966941;28;20223;-77
2021/07/20 05:07:17;;;;;;;5.07;4.37;;;;;;;15.06;92.89;101050.72;4985206;28;20222;-77
2021/07/20 05:09:53;;;;;;;6.67;5.33;;;;;;;15.13;92.90;101056.59;4967343;28;20236;-77
2021/07/20 05:12:21;;;;;;;5.63;4.60;;;;;;;15.15;92.48;101058.25;4992107;28;20300;-77
2021/07/20 05:14:59;;;;;;;8.17;5.07;;;;;;;15.37;94.28;101056.56;4966472;28;20795;-77
2021/07/20 05:17:28;;;;;;;8.43;4.67;;;;;;;15.29;90.32;101052.47;4969432;28;20224;-77
2021/07/20 05:19:55;;;;;;;6.97;4.83;;;;;;;15.41;91.01;101056.38;4981911;28;20497;-78
2021/07/20 05:22:29;;;;;;;5.57;4.67;;;;;;;15.46;92.26;101046.56;4967890;28;20236;-77
2021/07/20 05:24:58;;;;;;;5.77;4.43;;;;;;;15.47;89.89;101058.75;4966707;28;20271;-77
2021/07/20 05:27:26;;;;;;;5.57;4.10;;;;;;;15.52;89.22;101058.59;4987988;28;20201;-77
2021/07/20 05:29:54;;;;;;;5.67;4.20;;;;;;;15.68;87.97;101056.19;4964563;28;20209;-77
2021/07/20 05:32:31;;;;;;;7.80;5.00;;;;;;;15.80;87.61;101052.25;4982510;28;20197;-77
2021/07/20 05:34:58;;;;;;;6.60;4.17;;;;;;;15.86;85.64;101059.88;4966699;28;20232;-77
2021/07/20 05:37:25;;;;;;;6.40;4.23;;;;;;;15.99;86.86;101057.56;4965736;28;20243;-77
2021/07/20 05:39:56;;;;;;;5.07;4.07;;;;;;;16.02;85.44;101058.34;4966130;28;20597;-77
2021/07/20 05:42:31;;;;;;;4.67;3.90;;;;;;;16.12;86.67;101058.78;4963576;28;20575;-77
2021/07/20 05:45:00;;;;;;;5.80;3.67;;;;;;;16.21;87.07;101060.16;4967310;28;20228;-77
2021/07/20 05:47:28;;;;;;;6.10;3.63;;;;;;;16.20;81.18;101069.84;4984307;28;20638;-77
2021/07/20 05:49:55;;;;;;;6.50;3.70;;;;;;;16.22;80.00;101064.53;4980610;28;20576;-77
2021/07/20 05:52:24;;;;;;;5.50;3.50;;;;;;;16.24;80.66;101081.94;4964890;28;20206;-78
2021/07/20 05:54:55;;;;;;;6.63;3.60;;;;;;;16.11;81.91;101082.50;4966935;28;20272;-77
2021/07/20 05:57:31;;;;;;;3.40;2.87;;;;;;;16.22;78.18;101090.81;4980178;28;20247;-77
2021/07/20 06:00:23;;;;;;;5.63;3.47;;;;;;;16.30;80.34;101083.44;4981876;28;20209;-78
2021/07/20 06:03:01;;;;;;;5.77;3.60;;;;;;;16.40;81.80;101094.44;4968388;28;20291;-77
2021/07/20 06:05:28;;;;;;;6.33;3.83;;;;;;;16.40;81.05;101100.53;4964448;28;20237;-77
2021/07/20 06:07:54;;;;;;;4.63;3.70;;;;;;;16.36;80.06;101100.72;4982758;28;20201;-78
2021/07/20 06:10:22;;;;;;;4.77;3.70;;;;;;;16.34;81.57;101102.59;4981816;28;20241;-77
2021/07/20 06:12:52;;;;;;;4.90;3.60;;;;;;;16.45;81.43;101100.38;4984288;28;20201;-78
2021/07/20 06:15:19;;;;;;;5.30;3.83;;;;;;;16.49;80.37;101111.59;4983628;28;20233;-77
2021/07/20 06:17:47;;;;;;;5.83;3.57;;;;;;;16.50;78.91;101114.19;4983030;28;20221;-77
2021/07/20 06:20:15;;;;;;;5.40;3.70;;;;;;;16.66;81.00;101104.69;4990335;28;20284;-77
2021/07/20 06:22:49;;;;;;;6.40;4.13;;;;;;;16.73;80.29;101110.53;4977054;28;20426;-78
2021/07/20 06:25:19;;;;;;;6.87;3.87;;;;;;;16.75;80.87;101107.84;4972019;28;20235;-77
2021/07/20 06:27:47;;;;;;;8.57;4.00;;;;;;;16.86;82.24;101110.88;4981178;28;20211;-77
2021/07/20 06:30:16;;;;;;;5.57;3.73;;;;;;;16.84;78.25;101118.84;4990332;28;20202;-77
2021/07/20 06:32:44;;;;;;;4.33;3.50;;;;;;;16.86;78.74;101116.13;4979757;28;20193;-77
2021/07/20 06:35:14;;;;;;;5.30;3.40;;;;;;;16.88;79.05;101122.19;4992588;28;20328;-77
2021/07/20 06:37:42;;;;;;;6.73;3.50;;;;;;;17.02;79.73;101119.78;4979798;28;20228;-77
2021/07/20 06:40:10;;;;;;;4.50;3.43;;;;;;;17.17;80.67;101122.66;4982516;28;20212;-77
2021/07/20 06:42:36;;;;;;;5.47;3.73;;;;;;;17.15;76.29;101124.50;4980642;28;20536;-77
2021/07/20 06:45:03;;;;;;;4.57;3.63;;;;;;;17.11;74.76;101128.19;4979958;28;20813;-77
2021/07/20 06:47:39;;;;;;;4.27;3.43;;;;;;;17.21;77.03;101117.16;4965150;28;20201;-77
2021/07/20 06:50:07;;;;;;;3.33;3.03;;;;;;;17.26;75.38;101131.94;4983142;28;20200;-77
2021/07/20 06:52:33;;;;;;;3.40;3.10;;;;;;;17.30;74.66;101126.44;4977851;28;20639;-77
2021/07/20 06:55:01;;;;;;;4.47;3.23;;;;;;;17.58;75.59;101125.16;4964867;28;20252;-77
2021/07/20 06:57:29;;;;;;;5.33;3.37;;;;;;;17.66;73.70;101124.78;4978367;28;20228;-77
2021/07/20 06:59:58;;;;;;;5.53;3.17;;;;;;;17.74;73.05;101125.25;4982727;28;20653;-78
2021/07/20 07:02:26;;;;;;;4.93;3.60;;;;;;;17.78;71.08;101121.53;4976213;28;20201;-78
2021/07/20 07:05:00;;;;;;;4.13;2.97;;;;;;;17.93;73.04;101126.09;4986499;28;20272;-77
2021/07/20 07:07:29;;;;;;;5.90;3.10;;;;;;;18.02;73.14;101122.16;4979396;28;20546;-77
2021/07/20 07:09:57;;;;;;;4.70;3.27;;;;;;;18.03;71.46;101128.28;4984725;28;20203;-77
2021/07/20 07:12:24;;;;;;;4.13;3.00;;;;;;;18.13;73.58;101125.16;4977639;28;20259;-77
2021/07/20 07:14:53;;;;;;;4.60;2.93;;;;;;;18.26;71.19;101135.94;4983109;28;20291;-77
2021/07/20 07:17:20;;;;;;;4.07;2.83;;;;;;;18.36;69.55;101141.59;4985241;28;20592;-77
2021/07/20 07:19:50;;;;;;;3.57;2.77;;;;;;;18.39;68.45;101133.50;4983769;28;20411;-77
2021/07/20 07:22:20;;;;;;;3.60;2.70;;;;;;;18.49;70.59;101124.19;4980770;28;20632;-77
2021/07/20 07:24:47;;;;;;;3.43;2.87;;;;;;;18.52;70.73;101131.97;4979548;28;20221;-77
2021/07/20 07:27:14;;;;;;;3.50;2.90;;;;;;;18.61;68.09;101132.41;4975598;28;20205;-77
2021/07/20 07:29:42;;;;;;;2.80;2.50;;;;;;;18.78;67.04;101142.09;4980833;28;20201;-77
2021/07/20 07:32:09;;;;;;;3.40;2.50;;;;;;;18.80;66.69;101143.72;4981067;28;20573;-77
2021/07/20 07:34:36;;;;;;;4.33;2.63;;;;;;;18.95;66.08;101149.19;4978282;28;20260;-77
2021/07/20 07:37:04;;;;;;;3.20;2.40;;;;;;;18.95;64.74;101143.91;4981175;28;20205;-77
2021/07/20 07:39:33;;;;;;;4.03;2.00;;;;;;;19.08;64.96;101147.56;4979991;28;20517;-78
2021/07/20 07:42:00;;;;;;;4.07;2.50;;;;;;;19.10;63.71;101154.50;4979548;28;20706;-77
2021/07/20 07:44:28;;;;;;;2.80;2.20;;;;;;;19.14;63.59;101149.91;4979007;28;20703;-77
2021/07/20 07:46:56;;;;;;;3.60;2.37;;;;;;;19.19;63.88;101147.88;4982404;28;20208;-77
2021/07/20 07:49:23;;;;;;;3.00;2.20;;;;;;;19.36;65.93;101146.94;4980755;28;20205;-77
2021/07/20 07:51:52;;;;;;;4.20;2.60;;;;;;;19.54;65.85;101138.94;4979808;28;20214;-77
2021/07/20 07:54:19;;;;;;;3.00;2.10;;;;;;;19.56;61.11;101148.50;4981732;28;20209;-78
2021/07/20 07:56:48;;;;;;;2.97;2.37;;;;;;;19.69;64.05;101140.72;4983490;28;20216;-78
2021/07/20 07:59:16;;;;;;;3.80;2.10;;;;;;;19.73;61.40;101150.19;4978131;28;20229;-77
2021/07/20 08:01:45;;;;;;;3.87;1.97;;;;;;;19.81;64.70;101142.72;4990194;28;20205;-78
2021/07/20 08:04:13;;;;;;;3.03;2.50;;;;;;;19.88;61.88;101160.91;4981923;28;20209;-77
2021/07/20 08:06:41;;;;;;;2.60;2.30;;;;;;;19.98;64.98;101146.16;4986150;28;20209;-77
2021/07/20 08:12:58;;;;;;;3.20;2.20;;;;;;;20.01;61.42;101144.19;4982500;28;20213;-77
2021/07/20 08:15:26;;;;;;;3.07;2.00;;;;;;;20.05;60.62;101145.75;4987461;28;20224;-78
2021/07/20 08:17:54;;;;;;;2.90;1.90;;;;;;;20.16;58.64;101149.56;4985168;28;20813;-78
2021/07/20 08:20:21;;;;;;;3.37;2.10;;;;;;;20.37;60.25;101147.47;4984249;28;20202;-78
2021/07/20 08:22:48;;;;;;;3.30;2.17;;;;;;;20.26;59.70;101149.88;4984577;28;20241;-77
2021/07/20 08:25:21;;;;;;;3.07;2.33;;;;;;;20.18;58.39;101145.88;4983362;28;20225;-78
2021/07/20 08:27:51;;;;;;;3.07;1.90;;;;;;;20.21;58.24;101152.78;4984637;28;20690;-78
2021/07/20 08:30:21;;;;;;;3.23;2.17;;;;;;;20.27;58.50;101144.50;4982860;28;20547;-78
2021/07/20 08:32:51;;;;;;;2.37;2.00;;;;;;;20.40;59.56;101142.84;4984002;28;20209;-77
2021/07/20 08:35:21;;;;;;;2.90;2.03;;;;;;;20.61;59.95;101142.47;4985120;28;20244;-75
2021/07/20 08:37:51;;;;;;;3.73;2.40;;;;;;;20.77;57.23;101150.38;4987231;28;20571;-75
2021/07/20 08:40:29;;;;;;;2.93;2.20;;;;;;;20.78;60.41;101146.81;4983306;28;20205;-75
2021/07/20 08:43:06;;;;;;;2.58;2.25;;;;;;;20.80;60.80;101147.56;4984821;28;20217;-75
2021/07/20 08:45:39;;;;;;;4.00;2.20;;;;;;;20.64;58.94;101146.78;4981831;28;20235;-76
2021/07/20 08:48:15;;;;;;;3.03;1.60;;;;;;;20.65;56.64;101153.78;4982698;28;20201;-76
2021/07/20 08:50:46;;;;;;;4.17;1.93;;;;;;;20.74;57.71;101161.19;4981758;28;20240;-75
2021/07/20 08:53:21;;;;;;;3.00;2.17;;;;;;;20.52;58.66;101157.13;4971014;28;20235;-75
2021/07/20 08:55:53;;;;;;;5.33;2.23;;;;;;;20.47;57.92;101167.13;4982542;28;20229;-76
2021/07/20 08:58:24;;;;;;;4.18;2.42;;;;;;;20.38;58.06;101165.03;4984392;28;20770;-76
2021/07/20 09:00:54;;;;;;;2.87;2.47;;;;;;;20.55;63.16;101140.22;4983473;28;20197;-76
2021/07/20 09:03:35;;;;;;;2.60;2.30;;;;;;;20.69;58.24;101156.16;4985480;28;20232;-76
2021/07/20 09:06:05;;;;;;;3.73;2.00;;;;;;;20.59;56.61;101149.66;4982961;28;20231;-75
2021/07/20 09:08:36;;;;;;;3.03;2.20;;;;;;;20.52;57.15;101167.72;4987639;28;20323;-76
2021/07/20 09:11:14;;;;;;;3.20;2.10;;;;;;;20.62;58.84;101154.81;4978389;28;20292;-76
2021/07/20 09:13:47;;;;;;;2.93;2.43;;;;;;;20.73;57.27;101154.19;4988497;28;20205;-75
2021/07/20 09:16:25;;;;;;;3.73;2.07;;;;;;;20.76;58.67;101154.84;4983042;28;20237;-76
2021/07/20 09:18:56;;;;;;;2.30;2.10;;;;;;;20.66;56.64;101163.44;4987887;28;20221;-76
2021/07/20 09:21:28;;;;;;;3.00;2.05;;;;;;;20.79;55.64;101165.25;4983000;28;20205;-76
2021/07/20 09:24:02;;;;;;;3.53;2.13;;;;;;;20.73;54.23;101162.97;4985503;28;20259;-76
2021/07/20 09:26:35;;;;;;;4.30;2.10;;;;;;;20.80;56.11;101152.84;4980992;28;20235;-75
2021/07/20 09:29:06;;;;;;;3.10;2.20;;;;;;;20.79;56.66;101154.66;4981193;28;20213;-75
2021/07/20 09:31:43;;;;;;;5.43;2.08;;;;;;;20.86;54.19;101156.94;4981542;28;20241;-76
2021/07/20 09:34:20;;;;;;;2.78;2.08;;;;;;;20.94;55.02;101155.50;4988136;28;20219;-76
2021/07/20 09:36:56;;;;;;;3.90;1.92;;;;;;;21.00;53.71;101154.28;4982648;28;20746;-76
2021/07/20 09:39:39;;;;;;;2.33;1.80;;;;;;;21.07;49.41;101163.59;4982920;28;20344;-76
2021/07/20 09:42:14;;;;;;;2.38;1.70;;;;;;;21.26;52.20;101162.41;4981604;28;20247;-76
2021/07/20 09:44:45;;;;;;;2.65;1.90;;;;;;;21.28;51.58;101155.22;4983129;28;20639;-75
2021/07/20 09:47:22;;;;;;;2.15;1.77;;;;;;;21.27;52.78;101157.03;4984549;28;20209;-76
2021/07/20 09:50:04;;;;;;;3.08;2.03;;;;;;;21.17;49.33;101159.38;4980984;28;20201;-76
2021/07/20 09:53:19;;;;;;;4.22;2.10;;;;;;;21.20;53.18;101158.34;4984089;28;20614;-76
2021/07/20 09:56:07;;;;;;;2.30;1.77;;;;;;;21.29;51.38;101152.47;4936857;28;20234;-75
2021/07/20 09:58:36;;;;;;;2.55;1.70;;;;;;;21.23;50.29;101158.19;4967850;28;20232;-75
2021/07/20 10:01:15;;;;;;;2.00;1.80;;;;;;;21.53;46.81;101159.88;4983557;28;20194;-76
2021/07/20 10:03:52;;;;;;;2.40;1.70;;;;;;;21.30;45.97;101175.41;4984618;28;20747;-75
2021/07/20 10:06:24;;;;;;;2.80;2.08;;;;;;;21.16;47.79;101156.84;4978158;28;20594;-75
2021/07/20 10:08:57;;;;;;;4.47;2.28;;;;;;;21.13;49.42;101154.38;4984548;28;20315;-76
2021/07/20 10:11:28;;;;;;;2.88;1.98;;;;;;;21.13;51.08;101141.13;4983884;28;20240;-76
2021/07/20 10:14:22;;;;;;;3.42;1.95;;;;;;;21.14;51.29;101135.75;4986788;28;20211;-75
2021/07/20 10:16:55;;;;;;;1.95;1.65;;;;;;;21.17;50.35;101139.97;4979058;28;20516;-76
2021/07/20 10:19:32;;;;;;;2.67;1.77;;;;;;;21.36;50.23;101131.72;4984260;28;21364;-76
2021/07/20 10:22:00;;;;;;;2.20;1.83;;;;;;;21.58;49.43;101133.03;4984981;28;20248;-78
2021/07/20 10:24:30;;;;;;;2.50;2.20;;;;;;;21.81;51.55;101128.88;4992797;28;20209;-78
2021/07/20 10:27:02;;;;;;;2.92;2.10;;;;;;;21.96;49.79;101135.84;4987506;28;20734;-78
2021/07/20 10:29:46;;;;;;;2.72;1.95;;;;;;;22.04;46.98;101137.97;4991059;28;20241;-79
2021/07/20 10:32:19;;;;;;;3.57;1.97;;;;;;;22.17;47.03;101135.38;4979577;28;20653;-76
2021/07/20 10:34:52;;;;;;;2.83;1.98;;;;;;;22.16;44.70;101137.16;4993075;28;20313;-75
2021/07/20 10:37:22;;;;;;;2.72;2.15;;;;;;;22.37;47.48;101118.97;4975716;28;20212;-76
2021/07/20 10:39:51;;;;;;;3.08;1.80;;;;;;;22.43;47.11;101123.03;4981381;28;20231;-75
2021/07/20 10:42:24;;;;;;;2.65;2.00;;;;;;;22.47;43.62;101130.66;4977116;28;20197;-76
2021/07/20 10:44:54;;;;;;;3.40;2.20;;;;;;;22.57;44.29;101132.72;4993163;28;20324;-75
2021/07/20 10:47:25;;;;;;;3.78;2.17;;;;;;;22.55;43.82;101132.81;4978015;28;20209;-76
2021/07/20 10:49:56;;;;;;;2.83;1.98;;;;;;;22.36;45.21;101132.38;4984652;28;20205;-75
2021/07/20 10:52:56;;;;;;;3.40;2.28;;;;;;;22.57;45.77;101133.56;4980051;28;20220;-76
2021/07/20 10:55:26;;;;;;;3.53;2.17;;;;;;;22.88;44.14;101126.97;4978759;28;20225;-76
2021/07/20 10:58:00;;;;;;;4.35;2.30;;;;;;;23.00;46.65;101116.41;4979776;28;20216;-76
2021/07/20 11:00:33;;;;;;;3.00;1.98;;;;;;;23.11;43.98;101136.94;4984594;28;20481;-75
2021/07/20 11:03:06;;;;;;;3.15;1.88;;;;;;;22.97;44.16;101137.88;4979638;28;20211;-76
2021/07/20 11:05:37;;;;;;;2.65;2.45;;;;;;;22.25;43.94;101147.19;4985359;28;20225;-75
2021/07/20 11:08:05;;;;;;;2.72;2.30;;;;;;;21.92;45.87;101137.84;4979890;28;20642;-76
2021/07/20 11:10:33;;;;;;;3.10;1.92;;;;;;;21.74;45.63;101139.91;4982327;28;20527;-76
2021/07/20 11:13:02;;;;;;;2.15;1.80;;;;;;;21.63;45.87;101133.59;4979474;28;20205;-76
2021/07/20 11:15:32;;;;;;;2.95;2.33;;;;;;;21.53;47.63;101131.53;4983584;28;20228;-76
2021/07/20 11:18:03;;;;;;;2.63;2.00;;;;;;;21.57;49.42;101131.34;4980688;28;20224;-76
2021/07/20 11:20:31;;;;;;;3.17;2.17;;;;;;;21.56;48.81;101130.47;4990752;28;20231;-76
2021/07/20 11:23:00;;;;;;;2.30;1.90;;;;;;;21.24;48.33;101130.69;4977398;28;20503;-76
2021/07/20 11:25:27;;;;;;;4.03;2.15;;;;;;;21.21;51.10;101124.72;4982081;28;20225;-76
2021/07/20 11:27:54;;;;;;;2.38;2.03;;;;;;;21.22;49.42;101119.34;4977826;28;20311;-75
2021/07/20 11:30:21;;;;;;;4.57;2.00;;;;;;;20.98;49.37;101117.28;4984895;28;20209;-76
2021/07/20 11:32:52;;;;;;;2.70;1.88;;;;;;;21.06;50.52;101121.25;4964703;28;20216;-75
2021/07/20 11:35:22;;;;;;;1.95;1.75;;;;;;;20.94;49.91;101121.06;4994487;28;20255;-76
2021/07/20 11:37:51;;;;;;;2.33;2.10;;;;;;;20.96;50.99;101119.16;4982045;28;20300;-75
2021/07/20 11:40:25;;;;;;;2.53;1.80;;;;;;;20.85;49.89;101120.78;4993408;28;20220;-76
2021/07/20 11:42:56;;;;;;;4.15;1.90;;;;;;;21.02;50.87;101109.13;4983529;28;20304;-76
2021/07/20 11:45:27;;;;;;;2.30;1.98;;;;;;;21.08;53.94;101114.06;4987981;28;20229;-75
2021/07/20 11:47:59;;;;;;;2.28;1.80;;;;;;;20.94;52.81;101107.81;4983794;28;20210;-76